Canyon City, Oregon
Current Conditions -  °F | °C
As of 3:15 PM on Friday 19 Dec 2014 (Local Time) from KGCD Reporting Station
Overcast Overcast  
Wind Chill:   Ceiling: 7000
Heat Index:   Visibility: 10mi
Dew Point:   Wind: 8mph
Humidity: 75%   Direction: 190°S
Pressure: 30"   Gusts: NA
Location:  44.39°N, 118.95°W
Report Text: KGCD 192315Z AUTO 19007KT 10SM OVC070 06/02 A3000 RMK AO2 T00570016
Loading
Personal Weather Stations






























Interactive Weather Map New forecast layout! Learn more

10-Day Weather Forecast

Advertisements
Track Severe Weather on mobile